This is the latest recevied weather packets stored in our database for station/object KA3RQR. If no packets are shown the sender has not sent any weather packets the latest 1 day(s).
| Time | Temp. | Humidity | Pressure | Rain* | Wind** | Luminosity | Snow |
|---|---|---|---|---|---|---|---|
| 1836274856 | 20° C | 91% | 1018.1 hPa | 0 mm | 0 m/s | 0 W/m² | - |
| 1836274554 | 20° C | 91% | 1018.2 hPa | 0 mm | 0 m/s | 0 W/m² | - |
| 1836274408 | 20.56° C | 90% | 1018.1 hPa | 0 mm | 0 m/s | 0 W/m² | - |
| 1836274252 | 20° C | 91% | 1018.1 hPa | 0 mm | 0 m/s | 0 W/m² | - |
| 1836273946 | 20° C | 91% | 1017.9 hPa | 0 mm | 0 m/s | 0 W/m² | - |
| 1778048340 | 20.56° C | 61% | 1010.5 hPa | 0 mm | 1.34 m/s, 132° | 0 W/m² | - |
| 1778048037 | 21.11° C | 61% | 1010.7 hPa | 0 mm | 0.45 m/s, 138° | 0 W/m² | - |
| 1778047735 | 20.56° C | 62% | 1010.7 hPa | 0 mm | 0.45 m/s, 156° | 0 W/m² | - |
| 1778047433 | 21.11° C | 61% | 1010.5 hPa | 0 mm | 0.89 m/s, 139° | 0 W/m² | - |
| 1778047129 | 21.11° C | 60% | 1010.5 hPa | 0 mm | 1.79 m/s, 122° | 0 W/m² | - |
| 1778046826 | 21.11° C | 60% | 1010.5 hPa | 0 mm | 0.45 m/s, 130° | 0 W/m² | - |
| 1778046523 | 21.67° C | 59% | 1010.7 hPa | 0 mm | 0.89 m/s, 185° | 0 W/m² | - |
| 1778046220 | 21.67° C | 59% | 1010.7 hPa | 0 mm | 1.34 m/s, 156° | 0 W/m² | - |
| 1778045916 | 21.67° C | 58% | 1010.4 hPa | 0 mm | 2.24 m/s, 132° | 0 W/m² | - |
| 1778045615 | 21.67° C | 58% | 1010.7 hPa | 0 mm | 0.89 m/s, 132° | 0 W/m² | - |
| 1778045313 | 21.67° C | 58% | 1010.5 hPa | 0 mm | 1.34 m/s, 148° | 0 W/m² | - |
| 1778045011 | 21.67° C | 58% | 1010.8 hPa | 0 mm | 0.45 m/s, 217° | 0 W/m² | - |
| 1778044709 | 21.67° C | 58% | 1010.8 hPa | 0 mm | 1.79 m/s, 171° | 0 W/m² | - |
| 1778044405 | 21.67° C | 58% | 1010.8 hPa | 0 mm | 0.89 m/s, 231° | 0 W/m² | - |
| 1778044102 | 21.67° C | 58% | 1010.8 hPa | 0 mm | 0.45 m/s, 178° | 0 W/m² | - |
| 1778043799 | 21.67° C | 57% | 1011 hPa | 0 mm | 0.45 m/s, 183° | 0 W/m² | - |
| 1778043496 | 21.67° C | 57% | 1010.9 hPa | 0 mm | 1.34 m/s, 125° | 0 W/m² | - |
| 1778043193 | 21.67° C | 56% | 1011.1 hPa | 0 mm | 1.79 m/s, 131° | 0 W/m² | - |
| 1778042890 | 21.67° C | 56% | 1010.7 hPa | 0 mm | 0 m/s | 0 W/m² | - |
| 1778042588 | 21.67° C | 57% | 1011.1 hPa | 0 mm | 0.89 m/s, 183° | 0 W/m² | - |
* Rain latest hour (hover to see other rain measurements)
** Current wind speed in m/s (hover to see current wind gust speed)